メインページ
METAR-TAF:

METAR-TAF

空港 :

アビジャン, コートジボワール

フェリックス・ウフェ=ボワニ国際空港

緯度: 05-15N, 経度: 003-56W, 海抜: 7m

現時点の気象観測

当レポートは37分前の01:00(UTC)に作成
南西の風 4kt、南/南西から西の間で変化する
気温 27°C
湿度 94%
気圧 1011 hPa
視程: 8000m

METAR: DIAP 180100Z 23004KT 200V270 8000 NSC 27/26 Q1011 TEMPO 4000 BR

時間: 01:37 (01:37 UTC)

予報

当レポートは2時間37分前の23:00(UTC)に作成
予報は18日の 00時(UTC)から 19日の 06時(UTC)まで有効
変向風 2kt
視程: 8000m
確率 30%
18日の 02時(UTC)から 18日の 08時(UTC)まで
視程: 2000m
高度1000ftの雲はほとんどない
18日の 08時(UTC)から 18日の 10時(UTC)まで徐々に
南西の風 10kt
確率 30% :
18日の 12時(UTC)から 18日の 18時(UTC)まで一時的に
高度1200ftの千切れ雲あり

TAF: DIAP 172300Z 1800/1906 VRB02KT 8000 NSC PROB30 1802/1808 2000 BR FEW010 BECMG 1808/1810 22010KT PROB30 TEMPO 1812/1818 BKN012

4,000以上の空港の気象観測と天気予報(METAR報とTAF報)

利用可能な観測所は地図上に黄色い丸と赤い丸で示す。

丸の上にカーソルを重ねると観測所名を参照できる。

次にクリックすると気象観測と天気予報を参照できる。

マップの切り替え:黒色「×」印の緑ボタンをクリックして拡大、「-」印の緑ボタンをクリックして縮小、緑色の三角印をクリックして隣りの地図に切り替え


METAR-TAF: